sensor_id;sensor_type;location;lat;lon;timestamp;temperature;humidity
2489;DHT22;1255;48.716;9.124;2022-12-18T00:02:04;-11.10;99.90
2489;DHT22;1255;48.716;9.124;2022-12-18T00:04:30;-11.10;99.90
2489;DHT22;1255;48.716;9.124;2022-12-18T00:06:57;-11.20;99.90
2489;DHT22;1255;48.716;9.124;2022-12-18T00:09:24;-11.10;99.90
2489;DHT22;1255;48.716;9.124;2022-12-18T00:11:51;-11.20;99.90
2489;DHT22;1255;48.716;9.124;2022-12-18T00:14:18;-11.10;99.90
2489;DHT22;1255;48.716;9.124;2022-12-18T00:16:46;-11.10;99.90
2489;DHT22;1255;48.716;9.124;2022-12-18T00:19:14;-11.10;99.90
2489;DHT22;1255;48.716;9.124;2022-12-18T00:21:42;-11.10;99.90
2489;DHT22;1255;48.716;9.124;2022-12-18T00:24:09;-11.10;99.90
2489;DHT22;1255;48.716;9.124;2022-12-18T00:26:38;-11.10;99.90
2489;DHT22;1255;48.716;9.124;2022-12-18T00:29:07;-11.10;99.90
2489;DHT22;1255;48.716;9.124;2022-12-18T00:31:34;-11.10;99.90
2489;DHT22;1255;48.716;9.124;2022-12-18T00:34:02;-11.10;99.90
2489;DHT22;1255;48.716;9.124;2022-12-18T00:36:30;-11.00;99.90
2489;DHT22;1255;48.716;9.124;2022-12-18T00:38:58;-11.10;99.90
2489;DHT22;1255;48.716;9.124;2022-12-18T00:41:25;-11.10;99.90
2489;DHT22;1255;48.716;9.124;2022-12-18T00:44:11;-11.00;99.90
2489;DHT22;1255;48.716;9.124;2022-12-18T00:46:39;-11.00;99.90
2489;DHT22;1255;48.716;9.124;2022-12-18T00:49:07;-11.00;99.90
2489;DHT22;1255;48.716;9.124;2022-12-18T00:51:34;-11.10;99.90
2489;DHT22;1255;48.716;9.124;2022-12-18T00:54:01;-11.10;99.90
2489;DHT22;1255;48.716;9.124;2022-12-18T00:56:28;-11.10;99.90
2489;DHT22;1255;48.716;9.124;2022-12-18T00:58:55;-11.10;99.90
2489;DHT22;1255;48.716;9.124;2022-12-18T01:01:21;-11.10;99.90
2489;DHT22;1255;48.716;9.124;2022-12-18T01:03:48;-11.20;99.90
2489;DHT22;1255;48.716;9.124;2022-12-18T01:06:16;-11.20;99.90
2489;DHT22;1255;48.716;9.124;2022-12-18T01:08:43;-11.20;99.90
2489;DHT22;1255;48.716;9.124;2022-12-18T01:11:12;-11.30;99.90
2489;DHT22;1255;48.716;9.124;2022-12-18T01:13:39;-11.20;99.90
2489;DHT22;1255;48.716;9.124;2022-12-18T01:16:06;-11.30;99.90
2489;DHT22;1255;48.716;9.124;2022-12-18T01:18:34;-11.30;99.90
2489;DHT22;1255;48.716;9.124;2022-12-18T01:21:05;-11.40;99.90
2489;DHT22;1255;48.716;9.124;2022-12-18T01:23:33;-11.40;99.90
2489;DHT22;1255;48.716;9.124;2022-12-18T01:26:04;-11.50;99.90
2489;DHT22;1255;48.716;9.124;2022-12-18T01:28:31;-11.50;99.90
2489;DHT22;1255;48.716;9.124;2022-12-18T01:31:08;-11.60;99.90
2489;DHT22;1255;48.716;9.124;2022-12-18T01:33:35;-11.60;99.90
2489;DHT22;1255;48.716;9.124;2022-12-18T01:36:01;-11.60;99.90
2489;DHT22;1255;48.716;9.124;2022-12-18T01:38:29;-11.60;99.90
2489;DHT22;1255;48.716;9.124;2022-12-18T01:40:58;-11.60;99.90
2489;DHT22;1255;48.716;9.124;2022-12-18T01:43:41;-11.60;99.90
2489;DHT22;1255;48.716;9.124;2022-12-18T01:46:08;-11.60;99.90
2489;DHT22;1255;48.716;9.124;2022-12-18T01:48:34;-11.70;99.90
2489;DHT22;1255;48.716;9.124;2022-12-18T01:51:01;-11.60;99.90
2489;DHT22;1255;48.716;9.124;2022-12-18T01:53:29;-11.70;99.90
2489;DHT22;1255;48.716;9.124;2022-12-18T01:55:59;-11.70;99.90
2489;DHT22;1255;48.716;9.124;2022-12-18T01:58:32;-11.70;99.90
2489;DHT22;1255;48.716;9.124;2022-12-18T02:01:00;-11.70;99.90
2489;DHT22;1255;48.716;9.124;2022-12-18T02:03:27;-11.60;99.90
2489;DHT22;1255;48.716;9.124;2022-12-18T02:05:59;-11.50;99.90
2489;DHT22;1255;48.716;9.124;2022-12-18T02:08:32;-11.50;99.90
2489;DHT22;1255;48.716;9.124;2022-12-18T02:11:05;-11.50;99.90
2489;DHT22;1255;48.716;9.124;2022-12-18T02:13:39;-11.50;99.90
2489;DHT22;1255;48.716;9.124;2022-12-18T02:16:12;-11.40;99.90
2489;DHT22;1255;48.716;9.124;2022-12-18T02:18:45;-11.40;99.90
2489;DHT22;1255;48.716;9.124;2022-12-18T02:21:23;-11.40;99.90
2489;DHT22;1255;48.716;9.124;2022-12-18T02:23:57;-11.40;99.90
2489;DHT22;1255;48.716;9.124;2022-12-18T02:26:30;-11.40;99.90
2489;DHT22;1255;48.716;9.124;2022-12-18T02:29:05;-11.40;99.90
2489;DHT22;1255;48.716;9.124;2022-12-18T02:31:42;-11.40;99.90
2489;DHT22;1255;48.716;9.124;2022-12-18T02:34:10;-11.40;99.90
2489;DHT22;1255;48.716;9.124;2022-12-18T02:36:39;-11.50;99.90
2489;DHT22;1255;48.716;9.124;2022-12-18T02:39:09;-11.60;99.90
2489;DHT22;1255;48.716;9.124;2022-12-18T02:41:37;-11.60;99.90
2489;DHT22;1255;48.716;9.124;2022-12-18T02:44:08;-11.60;99.90
2489;DHT22;1255;48.716;9.124;2022-12-18T02:46:38;-11.60;99.90
2489;DHT22;1255;48.716;9.124;2022-12-18T02:49:12;-11.70;99.90
2489;DHT22;1255;48.716;9.124;2022-12-18T02:51:50;-11.70;99.90
2489;DHT22;1255;48.716;9.124;2022-12-18T02:54:26;-11.70;99.90
2489;DHT22;1255;48.716;9.124;2022-12-18T02:57:02;-11.70;99.90
2489;DHT22;1255;48.716;9.124;2022-12-18T02:59:36;-11.80;99.90
2489;DHT22;1255;48.716;9.124;2022-12-18T03:02:08;-11.80;99.90
2489;DHT22;1255;48.716;9.124;2022-12-18T03:04:40;-11.70;99.90
2489;DHT22;1255;48.716;9.124;2022-12-18T03:07:11;-11.60;99.90
2489;DHT22;1255;48.716;9.124;2022-12-18T03:09:43;-11.60;99.90
2489;DHT22;1255;48.716;9.124;2022-12-18T03:12:16;-11.60;99.90
2489;DHT22;1255;48.716;9.124;2022-12-18T03:14:54;-11.60;99.90
2489;DHT22;1255;48.716;9.124;2022-12-18T03:17:26;-11.60;99.90
2489;DHT22;1255;48.716;9.124;2022-12-18T03:19:55;-11.60;99.90
2489;DHT22;1255;48.716;9.124;2022-12-18T03:22:24;-11.60;99.90
2489;DHT22;1255;48.716;9.124;2022-12-18T03:24:54;-11.60;99.90
2489;DHT22;1255;48.716;9.124;2022-12-18T03:27:24;-11.50;99.90
2489;DHT22;1255;48.716;9.124;2022-12-18T03:29:56;-11.50;99.90
2489;DHT22;1255;48.716;9.124;2022-12-18T03:32:30;-11.40;99.90
2489;DHT22;1255;48.716;9.124;2022-12-18T03:35:03;-11.40;99.90
2489;DHT22;1255;48.716;9.124;2022-12-18T03:37:31;-11.40;99.90
2489;DHT22;1255;48.716;9.124;2022-12-18T03:39:58;-11.40;99.90
2489;DHT22;1255;48.716;9.124;2022-12-18T03:42:29;-11.40;99.90
2489;DHT22;1255;48.716;9.124;2022-12-18T03:45:01;-11.50;99.90
2489;DHT22;1255;48.716;9.124;2022-12-18T03:47:33;-11.60;99.90
2489;DHT22;1255;48.716;9.124;2022-12-18T03:50:08;-11.60;99.90
2489;DHT22;1255;48.716;9.124;2022-12-18T03:52:40;-11.70;99.90
2489;DHT22;1255;48.716;9.124;2022-12-18T03:55:09;-11.60;99.90
2489;DHT22;1255;48.716;9.124;2022-12-18T03:57:38;-11.60;99.90
2489;DHT22;1255;48.716;9.124;2022-12-18T04:00:09;-11.70;99.90
2489;DHT22;1255;48.716;9.124;2022-12-18T04:02:40;-11.70;99.90
2489;DHT22;1255;48.716;9.124;2022-12-18T04:05:08;-11.70;99.90
2489;DHT22;1255;48.716;9.124;2022-12-18T04:07:36;-11.70;99.90
2489;DHT22;1255;48.716;9.124;2022-12-18T04:10:07;-11.70;99.90
2489;DHT22;1255;48.716;9.124;2022-12-18T04:12:34;-11.70;99.90
2489;DHT22;1255;48.716;9.124;2022-12-18T04:15:06;-11.70;99.90
2489;DHT22;1255;48.716;9.124;2022-12-18T04:17:33;-11.70;99.90
2489;DHT22;1255;48.716;9.124;2022-12-18T04:20:00;-11.70;99.90
2489;DHT22;1255;48.716;9.124;2022-12-18T04:22:26;-11.70;99.90
2489;DHT22;1255;48.716;9.124;2022-12-18T04:24:53;-11.70;99.90
2489;DHT22;1255;48.716;9.124;2022-12-18T04:27:21;-11.70;99.90
2489;DHT22;1255;48.716;9.124;2022-12-18T04:29:47;-11.70;99.90
2489;DHT22;1255;48.716;9.124;2022-12-18T04:32:15;-11.70;99.90
2489;DHT22;1255;48.716;9.124;2022-12-18T04:34:42;-11.70;99.90
2489;DHT22;1255;48.716;9.124;2022-12-18T04:37:09;-11.70;99.90
2489;DHT22;1255;48.716;9.124;2022-12-18T04:39:36;-11.70;99.90
2489;DHT22;1255;48.716;9.124;2022-12-18T04:42:03;-11.70;99.90
2489;DHT22;1255;48.716;9.124;2022-12-18T04:44:30;-11.70;99.90
2489;DHT22;1255;48.716;9.124;2022-12-18T04:46:56;-11.60;99.90
2489;DHT22;1255;48.716;9.124;2022-12-18T04:49:24;-11.50;99.90
2489;DHT22;1255;48.716;9.124;2022-12-18T04:51:51;-11.50;99.90
2489;DHT22;1255;48.716;9.124;2022-12-18T04:54:18;-11.40;99.90
2489;DHT22;1255;48.716;9.124;2022-12-18T04:56:45;-11.40;99.90
2489;DHT22;1255;48.716;9.124;2022-12-18T04:59:12;-11.40;99.90
2489;DHT22;1255;48.716;9.124;2022-12-18T05:01:38;-11.40;99.90
2489;DHT22;1255;48.716;9.124;2022-12-18T05:04:05;-11.50;99.90
2489;DHT22;1255;48.716;9.124;2022-12-18T05:06:33;-11.50;99.90
2489;DHT22;1255;48.716;9.124;2022-12-18T05:09:00;-11.60;99.90
2489;DHT22;1255;48.716;9.124;2022-12-18T05:11:27;-11.60;99.90
2489;DHT22;1255;48.716;9.124;2022-12-18T05:13:55;-11.70;99.90
2489;DHT22;1255;48.716;9.124;2022-12-18T05:16:22;-11.70;99.90
2489;DHT22;1255;48.716;9.124;2022-12-18T05:18:48;-11.80;99.90
2489;DHT22;1255;48.716;9.124;2022-12-18T05:21:15;-11.80;99.90
2489;DHT22;1255;48.716;9.124;2022-12-18T05:23:43;-11.80;99.90
2489;DHT22;1255;48.716;9.124;2022-12-18T05:26:15;-11.80;99.90
2489;DHT22;1255;48.716;9.124;2022-12-18T05:28:42;-11.80;99.90
2489;DHT22;1255;48.716;9.124;2022-12-18T05:31:09;-11.90;99.90
2489;DHT22;1255;48.716;9.124;2022-12-18T05:33:36;-11.90;99.90
2489;DHT22;1255;48.716;9.124;2022-12-18T05:36:05;-11.90;99.90
2489;DHT22;1255;48.716;9.124;2022-12-18T05:38:35;-11.90;99.90
2489;DHT22;1255;48.716;9.124;2022-12-18T05:41:03;-11.90;99.90
2489;DHT22;1255;48.716;9.124;2022-12-18T05:43:31;-11.90;99.90
2489;DHT22;1255;48.716;9.124;2022-12-18T05:45:58;-12.00;99.90
2489;DHT22;1255;48.716;9.124;2022-12-18T05:48:29;-12.00;99.90
2489;DHT22;1255;48.716;9.124;2022-12-18T05:50:56;-12.00;99.90
2489;DHT22;1255;48.716;9.124;2022-12-18T05:53:29;-11.90;99.90
2489;DHT22;1255;48.716;9.124;2022-12-18T05:55:59;-12.00;99.90
2489;DHT22;1255;48.716;9.124;2022-12-18T05:58:27;-12.00;99.90
2489;DHT22;1255;48.716;9.124;2022-12-18T06:00:54;-12.00;99.90
2489;DHT22;1255;48.716;9.124;2022-12-18T06:03:21;-12.00;99.90
2489;DHT22;1255;48.716;9.124;2022-12-18T06:05:48;-12.00;99.90
2489;DHT22;1255;48.716;9.124;2022-12-18T06:08:15;-12.10;99.90
2489;DHT22;1255;48.716;9.124;2022-12-18T06:10:42;-12.10;99.90
2489;DHT22;1255;48.716;9.124;2022-12-18T06:13:08;-12.10;99.90
2489;DHT22;1255;48.716;9.124;2022-12-18T06:15:37;-12.20;99.90
2489;DHT22;1255;48.716;9.124;2022-12-18T06:18:04;-12.20;99.90
2489;DHT22;1255;48.716;9.124;2022-12-18T06:20:31;-12.20;99.90
2489;DHT22;1255;48.716;9.124;2022-12-18T06:22:58;-12.30;99.90
2489;DHT22;1255;48.716;9.124;2022-12-18T06:25:25;-12.40;99.90
2489;DHT22;1255;48.716;9.124;2022-12-18T06:27:51;-12.40;99.90
2489;DHT22;1255;48.716;9.124;2022-12-18T06:30:18;-12.40;99.90
2489;DHT22;1255;48.716;9.124;2022-12-18T06:32:47;-12.50;99.90
2489;DHT22;1255;48.716;9.124;2022-12-18T06:35:14;-12.50;99.90
2489;DHT22;1255;48.716;9.124;2022-12-18T06:37:41;-12.50;99.90
2489;DHT22;1255;48.716;9.124;2022-12-18T06:40:08;-12.50;99.90
2489;DHT22;1255;48.716;9.124;2022-12-18T06:42:35;-12.50;99.90
2489;DHT22;1255;48.716;9.124;2022-12-18T06:45:02;-12.50;99.90
2489;DHT22;1255;48.716;9.124;2022-12-18T06:47:29;-12.50;99.90
2489;DHT22;1255;48.716;9.124;2022-12-18T06:49:57;-12.50;99.90
2489;DHT22;1255;48.716;9.124;2022-12-18T06:52:24;-12.40;99.90
2489;DHT22;1255;48.716;9.124;2022-12-18T06:54:50;-12.40;99.90
2489;DHT22;1255;48.716;9.124;2022-12-18T06:57:17;-12.40;99.90
2489;DHT22;1255;48.716;9.124;2022-12-18T06:59:44;-12.50;99.90
2489;DHT22;1255;48.716;9.124;2022-12-18T07:02:11;-12.50;99.90
2489;DHT22;1255;48.716;9.124;2022-12-18T07:04:38;-12.60;99.90
2489;DHT22;1255;48.716;9.124;2022-12-18T07:07:06;-12.60;99.90
2489;DHT22;1255;48.716;9.124;2022-12-18T07:09:32;-12.60;99.90
2489;DHT22;1255;48.716;9.124;2022-12-18T07:11:59;-12.60;99.90
2489;DHT22;1255;48.716;9.124;2022-12-18T07:14:26;-12.60;99.90
2489;DHT22;1255;48.716;9.124;2022-12-18T07:16:53;-12.60;99.90
2489;DHT22;1255;48.716;9.124;2022-12-18T07:19:19;-12.60;99.90
2489;DHT22;1255;48.716;9.124;2022-12-18T07:21:46;-12.50;99.90
2489;DHT22;1255;48.716;9.124;2022-12-18T07:24:14;-12.40;99.90
2489;DHT22;1255;48.716;9.124;2022-12-18T07:26:41;-12.40;99.90
2489;DHT22;1255;48.716;9.124;2022-12-18T07:29:08;-12.30;99.90
2489;DHT22;1255;48.716;9.124;2022-12-18T07:31:34;-12.20;99.90
2489;DHT22;1255;48.716;9.124;2022-12-18T07:34:01;-12.10;99.90
2489;DHT22;1255;48.716;9.124;2022-12-18T07:36:28;-12.10;99.90
2489;DHT22;1255;48.716;9.124;2022-12-18T07:38:54;-11.90;99.90
2489;DHT22;1255;48.716;9.124;2022-12-18T07:41:22;-11.90;99.90
2489;DHT22;1255;48.716;9.124;2022-12-18T07:43:49;-11.80;99.90
2489;DHT22;1255;48.716;9.124;2022-12-18T07:46:16;-11.70;99.90
2489;DHT22;1255;48.716;9.124;2022-12-18T07:48:44;-11.70;99.90
2489;DHT22;1255;48.716;9.124;2022-12-18T07:51:11;-11.60;99.90
2489;DHT22;1255;48.716;9.124;2022-12-18T07:53:38;-11.50;99.90
2489;DHT22;1255;48.716;9.124;2022-12-18T07:56:07;-11.30;99.90
2489;DHT22;1255;48.716;9.124;2022-12-18T07:58:36;-11.20;99.90
2489;DHT22;1255;48.716;9.124;2022-12-18T08:01:04;-10.80;99.90
2489;DHT22;1255;48.716;9.124;2022-12-18T08:03:32;-10.40;99.90
2489;DHT22;1255;48.716;9.124;2022-12-18T08:06:00;-9.90;99.90
2489;DHT22;1255;48.716;9.124;2022-12-18T08:08:27;-9.20;99.90
2489;DHT22;1255;48.716;9.124;2022-12-18T08:10:54;-8.50;99.90
2489;DHT22;1255;48.716;9.124;2022-12-18T08:13:21;-8.00;99.90
2489;DHT22;1255;48.716;9.124;2022-12-18T08:15:57;-7.40;99.90
2489;DHT22;1255;48.716;9.124;2022-12-18T08:18:23;-6.80;99.90
2489;DHT22;1255;48.716;9.124;2022-12-18T08:20:50;-6.40;99.90
2489;DHT22;1255;48.716;9.124;2022-12-18T08:23:17;-6.20;99.90
2489;DHT22;1255;48.716;9.124;2022-12-18T08:25:44;-6.00;99.90
2489;DHT22;1255;48.716;9.124;2022-12-18T08:28:11;-5.90;99.90
2489;DHT22;1255;48.716;9.124;2022-12-18T08:30:38;-5.60;99.90
2489;DHT22;1255;48.716;9.124;2022-12-18T08:33:06;-5.40;99.90
2489;DHT22;1255;48.716;9.124;2022-12-18T08:35:35;-5.30;99.90
2489;DHT22;1255;48.716;9.124;2022-12-18T08:38:02;-5.20;99.90
2489;DHT22;1255;48.716;9.124;2022-12-18T08:40:28;-5.00;99.90
2489;DHT22;1255;48.716;9.124;2022-12-18T08:42:55;-4.80;99.90
2489;DHT22;1255;48.716;9.124;2022-12-18T08:45:39;-4.60;99.90
2489;DHT22;1255;48.716;9.124;2022-12-18T08:48:07;-4.50;99.90
2489;DHT22;1255;48.716;9.124;2022-12-18T08:50:34;-4.40;99.90
2489;DHT22;1255;48.716;9.124;2022-12-18T08:53:01;-4.80;99.90
2489;DHT22;1255;48.716;9.124;2022-12-18T08:55:28;-5.30;99.90
2489;DHT22;1255;48.716;9.124;2022-12-18T08:57:54;-5.60;99.90
2489;DHT22;1255;48.716;9.124;2022-12-18T09:00:21;-5.90;99.90
2489;DHT22;1255;48.716;9.124;2022-12-18T09:02:48;-6.20;99.90
2489;DHT22;1255;48.716;9.124;2022-12-18T09:05:16;-6.30;99.90
2489;DHT22;1255;48.716;9.124;2022-12-18T09:07:43;-6.40;99.90
2489;DHT22;1255;48.716;9.124;2022-12-18T09:10:09;-6.50;99.90
2489;DHT22;1255;48.716;9.124;2022-12-18T09:12:36;-6.50;99.90
2489;DHT22;1255;48.716;9.124;2022-12-18T09:15:04;-6.40;99.90
2489;DHT22;1255;48.716;9.124;2022-12-18T09:17:31;-6.20;99.90
2489;DHT22;1255;48.716;9.124;2022-12-18T09:19:57;-6.10;99.90
2489;DHT22;1255;48.716;9.124;2022-12-18T09:22:25;-5.80;99.90
2489;DHT22;1255;48.716;9.124;2022-12-18T09:24:52;-5.50;99.90
2489;DHT22;1255;48.716;9.124;2022-12-18T09:27:19;-4.50;99.90
2489;DHT22;1255;48.716;9.124;2022-12-18T09:29:46;-2.80;99.90
2489;DHT22;1255;48.716;9.124;2022-12-18T09:32:12;-0.80;99.90
2489;DHT22;1255;48.716;9.124;2022-12-18T09:34:39;0.70;99.90
2489;DHT22;1255;48.716;9.124;2022-12-18T09:37:06;1.90;99.90
2489;DHT22;1255;48.716;9.124;2022-12-18T09:39:34;3.30;99.90
2489;DHT22;1255;48.716;9.124;2022-12-18T09:42:01;4.60;99.00
2489;DHT22;1255;48.716;9.124;2022-12-18T09:44:30;5.80;97.70
2489;DHT22;1255;48.716;9.124;2022-12-18T09:47:09;6.90;96.60
2489;DHT22;1255;48.716;9.124;2022-12-18T09:49:40;8.20;93.70
2489;DHT22;1255;48.716;9.124;2022-12-18T09:52:14;8.90;93.10
2489;DHT22;1255;48.716;9.124;2022-12-18T09:54:46;9.70;90.70
2489;DHT22;1255;48.716;9.124;2022-12-18T09:57:15;10.10;90.30
2489;DHT22;1255;48.716;9.124;2022-12-18T09:59:47;10.60;90.30
2489;DHT22;1255;48.716;9.124;2022-12-18T10:02:18;11.50;89.30
2489;DHT22;1255;48.716;9.124;2022-12-18T10:04:55;12.30;82.20
2489;DHT22;1255;48.716;9.124;2022-12-18T10:07:30;12.60;83.70
2489;DHT22;1255;48.716;9.124;2022-12-18T10:10:06;12.60;81.70
2489;DHT22;1255;48.716;9.124;2022-12-18T10:12:40;12.00;79.40
2489;DHT22;1255;48.716;9.124;2022-12-18T10:15:14;11.10;81.70
2489;DHT22;1255;48.716;9.124;2022-12-18T10:17:47;10.30;83.30
2489;DHT22;1255;48.716;9.124;2022-12-18T10:20:23;11.10;83.00
2489;DHT22;1255;48.716;9.124;2022-12-18T10:22:55;12.20;80.10
2489;DHT22;1255;48.716;9.124;2022-12-18T10:25:28;10.60;79.50
2489;DHT22;1255;48.716;9.124;2022-12-18T10:28:00;9.50;82.80
2489;DHT22;1255;48.716;9.124;2022-12-18T10:30:33;9.10;84.10
2489;DHT22;1255;48.716;9.124;2022-12-18T10:33:00;8.30;85.30
2489;DHT22;1255;48.716;9.124;2022-12-18T10:35:28;9.00;85.60
2489;DHT22;1255;48.716;9.124;2022-12-18T10:38:06;9.30;84.60
2489;DHT22;1255;48.716;9.124;2022-12-18T10:40:49;10.30;83.80
2489;DHT22;1255;48.716;9.124;2022-12-18T10:43:20;11.70;80.60
2489;DHT22;1255;48.716;9.124;2022-12-18T10:46:13;12.50;80.00
2489;DHT22;1255;48.716;9.124;2022-12-18T10:48:50;12.50;80.20
2489;DHT22;1255;48.716;9.124;2022-12-18T10:51:23;12.00;77.70
2489;DHT22;1255;48.716;9.124;2022-12-18T10:53:59;10.40;79.50
2489;DHT22;1255;48.716;9.124;2022-12-18T10:56:30;9.50;83.40
2489;DHT22;1255;48.716;9.124;2022-12-18T10:59:00;8.10;85.00
2489;DHT22;1255;48.716;9.124;2022-12-18T11:01:27;8.20;85.90
2489;DHT22;1255;48.716;9.124;2022-12-18T11:04:07;8.60;88.30
2489;DHT22;1255;48.716;9.124;2022-12-18T11:06:52;10.10;83.80
2489;DHT22;1255;48.716;9.124;2022-12-18T11:09:21;9.90;83.50
2489;DHT22;1255;48.716;9.124;2022-12-18T11:11:50;9.40;84.60
2489;DHT22;1255;48.716;9.124;2022-12-18T11:14:21;8.60;85.00
2489;DHT22;1255;48.716;9.124;2022-12-18T11:16:50;8.90;85.60
2489;DHT22;1255;48.716;9.124;2022-12-18T11:19:26;8.90;84.60
2489;DHT22;1255;48.716;9.124;2022-12-18T11:21:55;8.90;86.10
2489;DHT22;1255;48.716;9.124;2022-12-18T11:24:26;8.80;86.80
2489;DHT22;1255;48.716;9.124;2022-12-18T11:26:55;9.30;85.40
2489;DHT22;1255;48.716;9.124;2022-12-18T11:29:24;9.10;85.80
2489;DHT22;1255;48.716;9.124;2022-12-18T11:32:24;8.90;86.60
2489;DHT22;1255;48.716;9.124;2022-12-18T11:34:55;7.90;88.10
2489;DHT22;1255;48.716;9.124;2022-12-18T11:37:23;7.60;89.50
2489;DHT22;1255;48.716;9.124;2022-12-18T11:39:54;7.80;89.50
2489;DHT22;1255;48.716;9.124;2022-12-18T11:42:27;7.70;89.40
2489;DHT22;1255;48.716;9.124;2022-12-18T11:44:59;7.40;89.20
2489;DHT22;1255;48.716;9.124;2022-12-18T11:47:31;6.70;89.80
2489;DHT22;1255;48.716;9.124;2022-12-18T11:50:12;6.50;90.60
2489;DHT22;1255;48.716;9.124;2022-12-18T11:52:40;6.00;90.80
2489;DHT22;1255;48.716;9.124;2022-12-18T11:55:11;5.40;91.30
2489;DHT22;1255;48.716;9.124;2022-12-18T11:57:47;5.40;91.70
2489;DHT22;1255;48.716;9.124;2022-12-18T12:00:18;5.50;91.90
2489;DHT22;1255;48.716;9.124;2022-12-18T12:03:06;5.60;92.00
2489;DHT22;1255;48.716;9.124;2022-12-18T12:05:49;5.60;91.60
2489;DHT22;1255;48.716;9.124;2022-12-18T12:08:28;5.40;91.80
2489;DHT22;1255;48.716;9.124;2022-12-18T12:11:05;4.70;92.00
2489;DHT22;1255;48.716;9.124;2022-12-18T12:13:47;4.00;92.50
2489;DHT22;1255;48.716;9.124;2022-12-18T12:16:17;3.10;93.50
2489;DHT22;1255;48.716;9.124;2022-12-18T12:18:56;2.70;94.40
2489;DHT22;1255;48.716;9.124;2022-12-18T12:21:35;2.50;94.80
2489;DHT22;1255;48.716;9.124;2022-12-18T12:24:19;2.30;95.20
2489;DHT22;1255;48.716;9.124;2022-12-18T12:26:58;2.20;95.50
2489;DHT22;1255;48.716;9.124;2022-12-18T12:29:36;1.90;96.00
2489;DHT22;1255;48.716;9.124;2022-12-18T12:32:22;2.00;96.10
2489;DHT22;1255;48.716;9.124;2022-12-18T12:35:00;2.00;96.30
2489;DHT22;1255;48.716;9.124;2022-12-18T12:37:36;2.00;96.30
2489;DHT22;1255;48.716;9.124;2022-12-18T12:40:06;1.90;96.30
2489;DHT22;1255;48.716;9.124;2022-12-18T12:42:39;1.70;96.60
2489;DHT22;1255;48.716;9.124;2022-12-18T12:45:33;1.60;97.00
2489;DHT22;1255;48.716;9.124;2022-12-18T12:48:02;1.50;97.10
2489;DHT22;1255;48.716;9.124;2022-12-18T12:50:33;1.50;97.10
2489;DHT22;1255;48.716;9.124;2022-12-18T12:53:01;1.30;97.30
2489;DHT22;1255;48.716;9.124;2022-12-18T12:55:32;1.30;97.50
2489;DHT22;1255;48.716;9.124;2022-12-18T12:58:05;1.40;97.70
2489;DHT22;1255;48.716;9.124;2022-12-18T13:00:41;1.30;97.80
2489;DHT22;1255;48.716;9.124;2022-12-18T13:03:24;1.30;97.90
2489;DHT22;1255;48.716;9.124;2022-12-18T13:05:59;1.20;98.00
2489;DHT22;1255;48.716;9.124;2022-12-18T13:08:28;1.10;98.30
2489;DHT22;1255;48.716;9.124;2022-12-18T13:10:56;0.90;98.40
2489;DHT22;1255;48.716;9.124;2022-12-18T13:13:51;1.00;98.40
2489;DHT22;1255;48.716;9.124;2022-12-18T13:16:21;0.90;98.70
2489;DHT22;1255;48.716;9.124;2022-12-18T13:18:49;0.90;98.60
2489;DHT22;1255;48.716;9.124;2022-12-18T13:21:22;0.90;98.30
2489;DHT22;1255;48.716;9.124;2022-12-18T13:23:50;0.80;98.60
2489;DHT22;1255;48.716;9.124;2022-12-18T13:26:32;0.70;98.80
2489;DHT22;1255;48.716;9.124;2022-12-18T13:29:00;0.50;99.20
2489;DHT22;1255;48.716;9.124;2022-12-18T13:31:59;0.40;99.60
2489;DHT22;1255;48.716;9.124;2022-12-18T13:34:28;0.20;99.80
2489;DHT22;1255;48.716;9.124;2022-12-18T13:36:57;0.20;99.90
2489;DHT22;1255;48.716;9.124;2022-12-18T13:39:43;0.10;99.90
2489;DHT22;1255;48.716;9.124;2022-12-18T13:42:37;0.00;99.90
2489;DHT22;1255;48.716;9.124;2022-12-18T13:45:43;0.00;99.90
2489;DHT22;1255;48.716;9.124;2022-12-18T13:48:31;-0.20;99.90
2489;DHT22;1255;48.716;9.124;2022-12-18T13:51:03;-0.30;99.90
2489;DHT22;1255;48.716;9.124;2022-12-18T13:53:34;-0.40;99.90
2489;DHT22;1255;48.716;9.124;2022-12-18T13:56:03;-0.50;99.90
2489;DHT22;1255;48.716;9.124;2022-12-18T13:58:30;-0.70;99.90
2489;DHT22;1255;48.716;9.124;2022-12-18T14:00:56;-0.70;99.90
2489;DHT22;1255;48.716;9.124;2022-12-18T14:03:26;-0.80;99.90
2489;DHT22;1255;48.716;9.124;2022-12-18T14:06:00;-0.90;99.90
2489;DHT22;1255;48.716;9.124;2022-12-18T14:08:32;-1.00;99.90
2489;DHT22;1255;48.716;9.124;2022-12-18T14:11:01;-1.10;99.90
2489;DHT22;1255;48.716;9.124;2022-12-18T14:13:31;-1.20;99.90
2489;DHT22;1255;48.716;9.124;2022-12-18T14:16:00;-1.20;99.90
2489;DHT22;1255;48.716;9.124;2022-12-18T14:18:32;-1.20;99.90
2489;DHT22;1255;48.716;9.124;2022-12-18T14:21:03;-1.20;99.90
2489;DHT22;1255;48.716;9.124;2022-12-18T14:23:32;-1.20;99.90
2489;DHT22;1255;48.716;9.124;2022-12-18T14:26:00;-1.30;99.90
2489;DHT22;1255;48.716;9.124;2022-12-18T14:28:27;-1.30;99.90
2489;DHT22;1255;48.716;9.124;2022-12-18T14:30:54;-1.40;99.90
2489;DHT22;1255;48.716;9.124;2022-12-18T14:33:23;-1.40;99.90
2489;DHT22;1255;48.716;9.124;2022-12-18T14:35:56;-1.50;99.90
2489;DHT22;1255;48.716;9.124;2022-12-18T14:38:27;-1.60;99.90
2489;DHT22;1255;48.716;9.124;2022-12-18T14:40:56;-1.70;99.90
2489;DHT22;1255;48.716;9.124;2022-12-18T14:43:23;-1.70;99.90
2489;DHT22;1255;48.716;9.124;2022-12-18T14:45:51;-1.80;99.90
2489;DHT22;1255;48.716;9.124;2022-12-18T14:48:19;-1.80;99.90
2489;DHT22;1255;48.716;9.124;2022-12-18T14:50:55;-1.90;99.90
2489;DHT22;1255;48.716;9.124;2022-12-18T14:53:31;-2.00;99.90
2489;DHT22;1255;48.716;9.124;2022-12-18T14:55:59;-2.10;99.90
2489;DHT22;1255;48.716;9.124;2022-12-18T14:58:26;-2.20;99.90
2489;DHT22;1255;48.716;9.124;2022-12-18T15:00:53;-2.30;99.90
2489;DHT22;1255;48.716;9.124;2022-12-18T15:03:21;-2.50;99.90
2489;DHT22;1255;48.716;9.124;2022-12-18T15:05:48;-2.60;99.90
2489;DHT22;1255;48.716;9.124;2022-12-18T15:08:30;-2.70;99.90
2489;DHT22;1255;48.716;9.124;2022-12-18T15:10:57;-2.80;99.90
2489;DHT22;1255;48.716;9.124;2022-12-18T15:13:24;-2.90;99.90
2489;DHT22;1255;48.716;9.124;2022-12-18T15:15:52;-2.90;99.90
2489;DHT22;1255;48.716;9.124;2022-12-18T15:18:23;-3.10;99.90
2489;DHT22;1255;48.716;9.124;2022-12-18T15:20:53;-3.20;99.90
2489;DHT22;1255;48.716;9.124;2022-12-18T15:23:23;-3.30;99.90
2489;DHT22;1255;48.716;9.124;2022-12-18T15:25:56;-3.40;99.90
2489;DHT22;1255;48.716;9.124;2022-12-18T15:28:26;-3.50;99.90
2489;DHT22;1255;48.716;9.124;2022-12-18T15:31:05;-3.60;99.90
2489;DHT22;1255;48.716;9.124;2022-12-18T15:33:35;-3.70;99.90
2489;DHT22;1255;48.716;9.124;2022-12-18T15:36:04;-3.70;99.90
2489;DHT22;1255;48.716;9.124;2022-12-18T15:38:31;-3.70;99.90
2489;DHT22;1255;48.716;9.124;2022-12-18T15:40:59;-3.90;99.90
2489;DHT22;1255;48.716;9.124;2022-12-18T15:43:27;-3.90;99.90
2489;DHT22;1255;48.716;9.124;2022-12-18T15:46:06;-4.00;99.90
2489;DHT22;1255;48.716;9.124;2022-12-18T15:48:40;-4.10;99.90
2489;DHT22;1255;48.716;9.124;2022-12-18T15:51:11;-4.10;99.90
2489;DHT22;1255;48.716;9.124;2022-12-18T15:53:41;-4.20;99.90
2489;DHT22;1255;48.716;9.124;2022-12-18T15:56:11;-4.20;99.90
2489;DHT22;1255;48.716;9.124;2022-12-18T15:58:55;-4.30;99.90
2489;DHT22;1255;48.716;9.124;2022-12-18T16:01:24;-4.30;99.90
2489;DHT22;1255;48.716;9.124;2022-12-18T16:03:51;-4.40;99.90
2489;DHT22;1255;48.716;9.124;2022-12-18T16:06:19;-4.40;99.90
2489;DHT22;1255;48.716;9.124;2022-12-18T16:08:46;-4.50;99.90
2489;DHT22;1255;48.716;9.124;2022-12-18T16:11:21;-4.50;99.90
2489;DHT22;1255;48.716;9.124;2022-12-18T16:14:04;-4.60;99.90
2489;DHT22;1255;48.716;9.124;2022-12-18T16:16:31;-4.60;99.90
2489;DHT22;1255;48.716;9.124;2022-12-18T16:18:58;-4.60;99.90